createdAt,value
2019-05-07T00:01:13.603Z,4.40
2019-05-07T00:03:42.944Z,4.40
2019-05-07T00:06:12.478Z,4.40
2019-05-07T00:08:44.712Z,4.40
2019-05-07T00:11:12.880Z,4.40
2019-05-07T00:13:44.336Z,4.40
2019-05-07T00:16:13.136Z,4.40
2019-05-07T00:18:43.033Z,4.40
2019-05-07T00:21:12.659Z,4.40
2019-05-07T00:23:43.304Z,4.30
2019-05-07T00:26:13.322Z,4.30
2019-05-07T00:28:43.390Z,4.20
2019-05-07T00:31:13.177Z,4.20
2019-05-07T00:33:43.229Z,4.20
2019-05-07T00:36:23.095Z,4.30
2019-05-07T00:38:57.492Z,4.30
2019-05-07T00:41:52.249Z,4.40
2019-05-07T00:44:22.350Z,4.40
2019-05-07T00:46:52.524Z,4.40
2019-05-07T00:49:23.696Z,4.40
2019-05-07T00:51:52.948Z,4.50
2019-05-07T00:54:23.056Z,4.50
2019-05-07T00:56:52.563Z,4.50
2019-05-07T00:59:22.529Z,4.50
2019-05-07T01:01:52.810Z,4.50
2019-05-07T01:04:22.911Z,4.50
2019-05-07T01:06:53.180Z,4.60
2019-05-07T01:09:23.024Z,4.60
2019-05-07T01:11:52.567Z,4.60
2019-05-07T01:14:22.804Z,4.60
2019-05-07T01:16:52.932Z,4.60
2019-05-07T01:19:22.495Z,4.50
2019-05-07T01:21:52.462Z,4.50
2019-05-07T01:24:23.302Z,4.50
2019-05-07T01:26:53.063Z,4.50
2019-05-07T01:29:22.819Z,4.50
2019-05-07T01:32:22.225Z,4.40
2019-05-07T01:34:58.863Z,4.40
2019-05-07T01:37:28.198Z,4.40
2019-05-07T01:39:57.547Z,4.40
2019-05-07T01:42:26.884Z,4.40
2019-05-07T01:44:56.232Z,4.50
2019-05-07T01:47:25.677Z,4.50
2019-05-07T01:49:55.317Z,4.50
2019-05-07T01:52:24.763Z,4.50
2019-05-07T01:54:54.123Z,4.50
2019-05-07T01:57:23.456Z,4.50
2019-05-07T01:59:52.977Z,4.50
2019-05-07T02:02:32.078Z,4.40
2019-05-07T02:05:16.131Z,4.40
2019-05-07T02:07:52.149Z,4.40
2019-05-07T02:10:38.747Z,4.40
2019-05-07T02:13:08.085Z,4.40
2019-05-07T02:15:37.445Z,4.40
2019-05-07T02:18:06.771Z,4.50
2019-05-07T02:20:36.500Z,4.50
2019-05-07T02:23:05.833Z,4.50
2019-05-07T02:25:35.184Z,4.50
2019-05-07T02:28:04.536Z,4.50
2019-05-07T02:30:35.051Z,4.50
2019-05-07T02:33:04.740Z,4.50
2019-05-07T02:35:34.075Z,4.60
2019-05-07T02:38:13.433Z,4.50
2019-05-07T02:41:06.419Z,4.50
2019-05-07T02:43:35.744Z,4.50
2019-05-07T02:46:22.340Z,4.40
2019-05-07T02:48:53.936Z,4.40
2019-05-07T02:51:38.407Z,4.40
2019-05-07T02:54:17.744Z,4.50
2019-05-07T02:56:47.090Z,4.50
2019-05-07T02:59:16.421Z,4.60
2019-05-07T03:01:45.771Z,4.60
2019-05-07T03:04:15.096Z,4.60
2019-05-07T03:06:44.547Z,4.60
2019-05-07T03:09:14.707Z,4.60
2019-05-07T03:11:44.249Z,4.50
2019-05-07T03:14:14.181Z,4.40
2019-05-07T03:16:48.934Z,4.40
2019-05-07T03:19:14.978Z,4.40
2019-05-07T03:21:54.168Z,4.50
2019-05-07T03:24:48.272Z,4.50
2019-05-07T03:27:17.619Z,4.50
2019-05-07T03:30:04.231Z,4.60
2019-05-07T03:32:40.101Z,4.60
2019-05-07T03:35:36.321Z,4.60
2019-05-07T03:38:03.502Z,4.60
2019-05-07T03:40:34.285Z,4.50
2019-05-07T03:43:06.041Z,4.60
2019-05-07T03:45:53.980Z,4.60
2019-05-07T03:48:24.960Z,4.60
2019-05-07T03:50:54.334Z,4.70
2019-05-07T03:53:23.723Z,4.70
2019-05-07T03:55:54.013Z,4.70
2019-05-07T03:58:23.935Z,4.70
2019-05-07T04:00:53.869Z,4.70
2019-05-07T04:03:24.765Z,4.70
2019-05-07T04:05:54.367Z,4.70
2019-05-07T04:08:24.073Z,4.70
2019-05-07T04:10:54.008Z,4.70
2019-05-07T04:13:24.376Z,4.70
2019-05-07T04:15:53.985Z,4.70
2019-05-07T04:18:23.995Z,4.80
2019-05-07T04:20:54.185Z,4.80
2019-05-07T04:23:23.773Z,4.80
2019-05-07T04:26:13.121Z,4.80
2019-05-07T04:29:04.885Z,4.80
2019-05-07T04:31:36.683Z,4.80
2019-05-07T04:34:13.481Z,4.80
2019-05-07T04:36:45.846Z,4.70
2019-05-07T04:39:15.227Z,4.80
2019-05-07T04:41:44.605Z,4.80
2019-05-07T04:44:14.473Z,4.80
2019-05-07T04:46:47.947Z,4.80
2019-05-07T04:49:15.024Z,4.90
2019-05-07T04:52:03.999Z,5.00
2019-05-07T04:54:33.596Z,5.10
2019-05-07T04:57:03.825Z,5.10
2019-05-07T04:59:33.300Z,5.20
2019-05-07T05:02:13.656Z,5.30
2019-05-07T05:04:43.855Z,5.30
2019-05-07T05:07:13.518Z,5.30
2019-05-07T05:09:42.916Z,5.30
2019-05-07T05:12:13.133Z,5.30
2019-05-07T05:14:43.596Z,5.30
2019-05-07T05:17:13.338Z,5.30
2019-05-07T05:19:43.910Z,5.30
2019-05-07T05:22:32.325Z,5.30
2019-05-07T05:25:26.707Z,5.40
2019-05-07T05:27:56.108Z,5.40
2019-05-07T05:30:42.264Z,5.50
2019-05-07T05:33:12.524Z,5.50
2019-05-07T05:35:43.091Z,5.60
2019-05-07T05:38:12.918Z,5.70
2019-05-07T05:40:42.833Z,5.80
2019-05-07T05:43:25.787Z,5.90
2019-05-07T05:45:57.095Z,6.00
2019-05-07T05:48:26.451Z,6.10
2019-05-07T05:51:08.467Z,6.20
2019-05-07T05:53:52.468Z,6.40
2019-05-07T05:56:28.087Z,6.60
2019-05-07T05:59:05.063Z,6.90
2019-05-07T06:01:44.471Z,7.30
2019-05-07T06:04:24.492Z,8.40
2019-05-07T06:07:11.457Z,10.00
2019-05-07T06:09:56.738Z,10.50
2019-05-07T06:12:42.717Z,10.50
2019-05-07T06:15:27.611Z,10.30
2019-05-07T06:18:17.681Z,10.00
2019-05-07T06:20:44.210Z,9.80
2019-05-07T06:23:24.380Z,9.60
2019-05-07T06:25:53.724Z,9.60
2019-05-07T06:28:23.135Z,9.60
2019-05-07T06:30:52.840Z,9.60
2019-05-07T06:33:22.971Z,9.60
2019-05-07T06:35:52.572Z,9.70
2019-05-07T06:38:22.955Z,9.60
2019-05-07T06:41:12.175Z,9.70
2019-05-07T06:43:48.115Z,10.00
2019-05-07T06:46:17.478Z,10.30
2019-05-07T06:48:46.874Z,10.70
2019-05-07T06:51:17.671Z,11.20
2019-05-07T06:53:47.115Z,11.40
2019-05-07T06:56:16.476Z,12.00
2019-05-07T06:58:52.621Z,12.50
2019-05-07T07:01:42.331Z,12.80
2019-05-07T07:04:33.459Z,13.10
2019-05-07T07:07:28.630Z,13.30
2019-05-07T07:10:12.002Z,13.60
2019-05-07T07:12:42.452Z,13.90
2019-05-07T07:15:12.244Z,14.20
2019-05-07T07:17:41.999Z,14.40
2019-05-07T07:20:12.667Z,14.20
2019-05-07T07:22:42.633Z,13.80
2019-05-07T07:25:12.048Z,13.40
2019-05-07T07:27:42.933Z,13.20
2019-05-07T07:30:28.411Z,13.10
2019-05-07T07:32:59.103Z,13.00
2019-05-07T07:35:28.494Z,12.70
2019-05-07T07:37:57.863Z,12.30
2019-05-07T07:40:55.566Z,12.10
2019-05-07T07:43:25.185Z,11.70
2019-05-07T07:45:54.570Z,11.50
2019-05-07T07:48:24.926Z,11.30
2019-05-07T07:50:55.003Z,11.30
2019-05-07T07:53:24.363Z,11.50
2019-05-07T07:56:12.121Z,11.70
2019-05-07T07:58:59.083Z,11.80
2019-05-07T08:01:36.463Z,12.00
2019-05-07T08:04:07.013Z,12.80
2019-05-07T08:06:38.537Z,13.80
2019-05-07T08:09:09.675Z,14.70
2019-05-07T08:11:42.323Z,15.20
2019-05-07T08:14:12.598Z,15.50
2019-05-07T08:16:42.901Z,15.50
2019-05-07T08:19:21.613Z,15.20
2019-05-07T08:21:43.974Z,14.60
2019-05-07T08:24:13.559Z,14.30
2019-05-07T08:26:43.042Z,14.30
2019-05-07T08:29:12.459Z,14.70
2019-05-07T08:31:51.610Z,15.40
2019-05-07T08:34:39.507Z,16.30
2019-05-07T08:37:08.899Z,17.30
2019-05-07T08:39:39.074Z,18.10
2019-05-07T08:42:08.391Z,18.30
2019-05-07T08:44:51.883Z,18.60
2019-05-07T08:47:31.911Z,18.70
2019-05-07T08:50:02.895Z,18.40
2019-05-07T08:52:32.753Z,18.60
2019-05-07T08:55:02.287Z,18.70
2019-05-07T08:57:31.988Z,18.70
2019-05-07T09:00:04.364Z,18.80
2019-05-07T09:02:32.671Z,18.70
2019-05-07T09:05:02.949Z,18.70
2019-05-07T09:07:32.542Z,19.00
2019-05-07T09:10:02.480Z,18.80
2019-05-07T09:12:32.087Z,18.50
2019-05-07T09:15:02.200Z,18.30
2019-05-07T09:17:31.912Z,18.00
2019-05-07T09:20:02.644Z,17.90
2019-05-07T09:22:32.448Z,17.80
2019-05-07T09:25:03.048Z,17.50
2019-05-07T09:27:42.427Z,17.40
2019-05-07T09:30:21.889Z,16.90
2019-05-07T09:33:09.767Z,16.00
2019-05-07T09:35:43.498Z,15.40
2019-05-07T09:38:12.882Z,14.80
2019-05-07T09:40:42.288Z,14.60
2019-05-07T09:43:11.927Z,14.40
2019-05-07T09:45:42.103Z,14.20
2019-05-07T09:48:12.727Z,14.20
2019-05-07T09:50:42.971Z,14.10
2019-05-07T09:53:12.892Z,13.80
2019-05-07T09:55:42.657Z,13.70
2019-05-07T09:58:12.689Z,13.60
2019-05-07T10:00:42.580Z,13.40
2019-05-07T10:03:12.828Z,13.10
2019-05-07T10:05:42.898Z,13.00
2019-05-07T10:08:13.014Z,12.70
2019-05-07T10:10:44.048Z,12.80
2019-05-07T10:13:36.303Z,12.80
2019-05-07T10:16:07.708Z,12.90
2019-05-07T10:18:36.693Z,13.20
2019-05-07T10:21:06.046Z,13.60
2019-05-07T10:23:35.423Z,13.80
2019-05-07T10:26:04.874Z,13.90
2019-05-07T10:28:34.512Z,13.90
2019-05-07T10:31:03.872Z,13.90
2019-05-07T10:33:33.321Z,13.90
2019-05-07T10:36:02.825Z,13.70
2019-05-07T10:38:32.186Z,13.60
2019-05-07T10:41:02.829Z,13.30
2019-05-07T10:43:32.790Z,13.00
2019-05-07T10:46:31.964Z,12.90
2019-05-07T10:49:12.402Z,12.80
2019-05-07T10:51:42.546Z,12.80
2019-05-07T10:54:12.575Z,12.90
2019-05-07T10:56:42.011Z,13.00
2019-05-07T10:59:12.267Z,12.90
2019-05-07T11:01:52.050Z,12.90
2019-05-07T11:04:21.516Z,12.80
2019-05-07T11:06:52.366Z,12.90
2019-05-07T11:09:22.235Z,12.90
2019-05-07T11:11:51.884Z,12.90
2019-05-07T11:14:21.748Z,12.90
2019-05-07T11:17:02.496Z,13.10
2019-05-07T11:19:32.462Z,13.20
2019-05-07T11:22:01.881Z,13.30
2019-05-07T11:24:32.114Z,13.10
2019-05-07T11:27:02.429Z,12.90
2019-05-07T11:29:33.052Z,12.80
2019-05-07T11:32:03.223Z,12.70
2019-05-07T11:34:36.218Z,12.60
2019-05-07T11:37:05.659Z,12.60
2019-05-07T11:39:35.027Z,12.50
2019-05-07T11:42:23.535Z,12.50
2019-05-07T11:44:55.036Z,12.70
2019-05-07T11:47:31.926Z,12.70
2019-05-07T11:50:29.338Z,12.90
2019-05-07T11:53:01.496Z,13.00
2019-05-07T11:55:30.882Z,13.40
2019-05-07T11:58:02.274Z,13.80
2019-05-07T12:00:39.910Z,14.20
2019-05-07T12:03:09.472Z,14.50
2019-05-07T12:05:38.851Z,14.70
2019-05-07T12:08:08.221Z,14.70
2019-05-07T12:10:37.593Z,14.50
2019-05-07T12:13:06.948Z,14.30
2019-05-07T12:15:36.351Z,14.00
2019-05-07T12:18:05.779Z,14.00
2019-05-07T12:20:35.132Z,13.80
2019-05-07T12:23:04.616Z,13.90
2019-05-07T12:25:33.979Z,13.80
2019-05-07T12:28:03.379Z,13.80
2019-05-07T12:30:52.926Z,14.10
2019-05-07T12:33:56.299Z,14.70
2019-05-07T12:36:25.680Z,15.40
2019-05-07T12:38:55.032Z,15.90
2019-05-07T12:41:33.252Z,15.80
2019-05-07T12:44:03.086Z,16.20
2019-05-07T12:46:34.331Z,16.40
2019-05-07T12:49:03.738Z,16.30
2019-05-07T12:51:38.448Z,15.90
2019-05-07T12:54:26.749Z,15.70
2019-05-07T12:56:56.143Z,15.50
2019-05-07T12:59:25.503Z,15.40
2019-05-07T13:02:33.423Z,15.40
2019-05-07T13:04:47.891Z,15.40
2019-05-07T13:07:35.074Z,15.40
2019-05-07T13:10:04.703Z,15.30
2019-05-07T13:12:34.080Z,15.20
2019-05-07T13:15:03.434Z,15.20
2019-05-07T13:17:33.773Z,15.20
2019-05-07T13:20:03.287Z,15.40
2019-05-07T13:22:32.682Z,15.30
2019-05-07T13:25:02.212Z,15.00
2019-05-07T13:27:32.081Z,14.90
2019-05-07T13:30:02.587Z,14.90
2019-05-07T13:32:33.542Z,15.10
2019-05-07T13:35:03.225Z,15.10
2019-05-07T13:37:34.442Z,15.10
2019-05-07T13:40:31.550Z,15.00
2019-05-07T13:43:15.755Z,15.00
2019-05-07T13:45:59.478Z,14.80
2019-05-07T13:48:28.954Z,14.40
2019-05-07T13:50:58.426Z,14.30
2019-05-07T13:53:27.908Z,14.40
2019-05-07T13:55:57.374Z,14.40
2019-05-07T13:58:26.739Z,14.60
2019-05-07T14:01:15.903Z,14.80
2019-05-07T14:03:48.079Z,15.10
2019-05-07T14:06:36.403Z,15.30
2019-05-07T14:09:10.534Z,15.40
2019-05-07T14:11:41.965Z,15.40
2019-05-07T14:14:12.315Z,15.40
2019-05-07T14:16:44.688Z,15.30
2019-05-07T14:19:13.109Z,15.10
2019-05-07T14:21:42.573Z,15.00
2019-05-07T14:24:14.704Z,14.90
2019-05-07T14:26:42.947Z,14.80
2019-05-07T14:29:12.431Z,14.80
2019-05-07T14:31:42.641Z,14.90
2019-05-07T14:34:22.437Z,14.90
2019-05-07T14:37:09.569Z,15.00
2019-05-07T14:39:38.920Z,15.20
2019-05-07T14:42:10.358Z,15.50
2019-05-07T14:44:49.753Z,15.60
2019-05-07T14:47:22.391Z,15.50
2019-05-07T14:49:53.003Z,15.20
2019-05-07T14:52:30.279Z,15.10
2019-05-07T14:54:53.541Z,15.10
2019-05-07T14:57:22.910Z,15.00
2019-05-07T14:59:52.489Z,14.90
2019-05-07T15:02:23.680Z,14.80
2019-05-07T15:04:52.980Z,14.60
2019-05-07T15:07:22.718Z,14.30
2019-05-07T15:09:52.694Z,14.10
2019-05-07T15:12:23.344Z,14.00
2019-05-07T15:14:52.974Z,14.00
2019-05-07T15:17:36.235Z,14.00
2019-05-07T15:20:05.929Z,13.90
2019-05-07T15:22:49.494Z,13.90
2019-05-07T15:25:15.336Z,13.90
2019-05-07T15:27:46.787Z,14.00
2019-05-07T15:30:16.343Z,14.10
2019-05-07T15:32:45.715Z,14.10
2019-05-07T15:35:15.075Z,14.10
2019-05-07T15:37:44.452Z,14.10
2019-05-07T15:40:14.011Z,14.10
2019-05-07T15:42:43.403Z,14.20
2019-05-07T15:45:12.858Z,14.20
2019-05-07T15:47:45.991Z,14.00
2019-05-07T15:50:15.740Z,13.90
2019-05-07T15:52:58.551Z,13.80
2019-05-07T15:55:24.011Z,13.80
2019-05-07T15:57:53.503Z,13.80
2019-05-07T16:00:24.941Z,13.70
2019-05-07T16:02:59.076Z,13.60
2019-05-07T16:05:28.440Z,13.60
2019-05-07T16:07:57.830Z,13.60
2019-05-07T16:10:27.184Z,13.60
2019-05-07T16:12:56.598Z,13.70
2019-05-07T16:15:25.951Z,13.70
2019-05-07T16:17:59.533Z,13.70
2019-05-07T16:20:28.891Z,13.70
2019-05-07T16:23:14.370Z,13.70
2019-05-07T16:25:33.015Z,13.70
2019-05-07T16:28:04.817Z,13.60
2019-05-07T16:30:33.434Z,13.50
2019-05-07T16:33:02.844Z,13.60
2019-05-07T16:35:32.292Z,13.60
2019-05-07T16:38:01.586Z,13.60
2019-05-07T16:40:32.288Z,13.60
2019-05-07T16:43:02.724Z,13.50
2019-05-07T16:45:32.178Z,13.50
2019-05-07T16:48:03.249Z,13.50
2019-05-07T16:50:32.800Z,13.50
2019-05-07T16:53:02.850Z,13.50
2019-05-07T16:55:37.213Z,13.40
2019-05-07T16:58:27.911Z,13.40
2019-05-07T17:01:01.094Z,13.40
2019-05-07T17:03:36.543Z,13.30
2019-05-07T17:06:05.924Z,13.30
2019-05-07T17:08:54.574Z,13.20
2019-05-07T17:11:23.934Z,13.20
2019-05-07T17:13:53.278Z,13.10
2019-05-07T17:16:22.940Z,13.00
2019-05-07T17:18:52.398Z,12.90
2019-05-07T17:21:21.921Z,12.80
2019-05-07T17:23:51.944Z,12.80
2019-05-07T17:26:23.220Z,12.70
2019-05-07T17:28:52.463Z,12.60
2019-05-07T17:31:22.897Z,12.50
2019-05-07T17:33:52.418Z,12.50
2019-05-07T17:36:22.511Z,12.40
2019-05-07T17:38:52.085Z,12.40
2019-05-07T17:41:26.771Z,12.30
2019-05-07T17:43:52.552Z,12.20
2019-05-07T17:46:21.930Z,12.10
2019-05-07T17:48:52.419Z,12.00
2019-05-07T17:51:42.154Z,11.90
2019-05-07T17:54:13.116Z,11.80
2019-05-07T17:56:42.855Z,11.70
2019-05-07T17:59:12.415Z,11.70
2019-05-07T18:02:06.746Z,11.60
2019-05-07T18:04:50.456Z,11.60
2019-05-07T18:07:11.795Z,11.50
2019-05-07T18:09:42.463Z,11.50
2019-05-07T18:12:12.174Z,11.40
2019-05-07T18:14:42.425Z,11.40
2019-05-07T18:17:43.252Z,11.30
2019-05-07T18:20:12.965Z,11.30
2019-05-07T18:22:42.382Z,11.10
2019-05-07T18:25:12.446Z,11.10
2019-05-07T18:27:42.116Z,11.00
2019-05-07T18:30:12.883Z,10.90
2019-05-07T18:32:46.508Z,10.90
2019-05-07T18:35:15.892Z,10.70
2019-05-07T18:37:52.462Z,10.60
2019-05-07T18:40:22.772Z,10.50
2019-05-07T18:42:52.519Z,10.30
2019-05-07T18:45:22.002Z,10.20
2019-05-07T18:47:51.744Z,10.00
2019-05-07T18:50:22.651Z,9.80
2019-05-07T18:52:52.383Z,9.60
2019-05-07T18:55:22.635Z,9.50
2019-05-07T18:57:52.319Z,9.40
2019-05-07T19:00:28.190Z,9.30
2019-05-07T19:02:57.560Z,9.20
2019-05-07T19:05:26.928Z,9.00
2019-05-07T19:08:05.371Z,8.90
2019-05-07T19:10:27.307Z,8.80
2019-05-07T19:12:56.675Z,8.70
2019-05-07T19:15:26.036Z,8.50
2019-05-07T19:17:55.407Z,8.40
2019-05-07T19:20:25.123Z,8.30
2019-05-07T19:22:54.495Z,8.20
2019-05-07T19:25:23.839Z,8.10
2019-05-07T19:27:53.207Z,8.00
2019-05-07T19:30:22.582Z,8.00
2019-05-07T19:32:52.218Z,7.90
2019-05-07T19:35:23.107Z,7.80
2019-05-07T19:37:52.920Z,7.70
2019-05-07T19:40:22.350Z,7.60
2019-05-07T19:42:52.298Z,7.50
2019-05-07T19:45:24.395Z,7.40
2019-05-07T19:47:52.734Z,7.30
2019-05-07T19:50:23.350Z,7.20
2019-05-07T19:52:52.874Z,7.10
2019-05-07T19:55:22.267Z,7.00
2019-05-07T19:57:55.940Z,7.00
2019-05-07T20:00:26.502Z,6.80
2019-05-07T20:02:58.770Z,6.70
2019-05-07T20:05:28.119Z,6.50
2019-05-07T20:08:01.961Z,6.40
2019-05-07T20:10:46.927Z,6.30
2019-05-07T20:13:16.335Z,6.30
2019-05-07T20:15:51.989Z,6.20
2019-05-07T20:18:21.975Z,6.20
2019-05-07T20:20:51.458Z,6.10
2019-05-07T20:23:22.716Z,6.10
2019-05-07T20:25:52.866Z,6.10
2019-05-07T20:28:22.335Z,5.90
2019-05-07T20:30:52.955Z,5.70
2019-05-07T20:33:22.719Z,5.60
2019-05-07T20:35:52.701Z,5.60
2019-05-07T20:38:22.153Z,5.60
2019-05-07T20:40:52.124Z,5.50
2019-05-07T20:43:23.083Z,5.40
2019-05-07T20:45:52.545Z,5.30
2019-05-07T20:48:22.675Z,5.20
2019-05-07T20:50:52.174Z,5.20
2019-05-07T20:53:42.295Z,5.10
2019-05-07T20:56:12.528Z,5.10
2019-05-07T20:58:41.923Z,5.10
2019-05-07T21:01:12.450Z,5.10
2019-05-07T21:03:42.889Z,5.20
2019-05-07T21:06:12.334Z,5.20
2019-05-07T21:08:42.798Z,5.30
2019-05-07T21:11:12.269Z,5.30
2019-05-07T21:13:44.474Z,5.30
2019-05-07T21:16:12.794Z,5.30
2019-05-07T21:18:42.356Z,5.30
2019-05-07T21:21:12.623Z,5.20
2019-05-07T21:23:43.389Z,5.20
2019-05-07T21:26:13.298Z,5.20
2019-05-07T21:28:43.344Z,5.30
2019-05-07T21:31:12.795Z,5.20
2019-05-07T21:33:42.923Z,5.20
2019-05-07T21:36:12.381Z,5.20
2019-05-07T21:38:42.555Z,5.00
2019-05-07T21:41:12.877Z,4.90
2019-05-07T21:43:45.909Z,4.90
2019-05-07T21:46:13.379Z,4.90
2019-05-07T21:48:42.732Z,5.00
2019-05-07T21:51:12.357Z,5.10
2019-05-07T21:54:00.678Z,5.10
2019-05-07T21:56:37.786Z,5.20
2019-05-07T21:59:12.466Z,5.30
2019-05-07T22:01:46.323Z,5.30
2019-05-07T22:04:15.680Z,5.30
2019-05-07T22:06:45.506Z,5.30
2019-05-07T22:09:15.414Z,5.30
2019-05-07T22:11:44.806Z,5.30
2019-05-07T22:14:14.154Z,5.30
2019-05-07T22:16:43.763Z,5.20
2019-05-07T22:19:13.121Z,5.20
2019-05-07T22:21:43.273Z,5.10
2019-05-07T22:24:15.063Z,5.20
2019-05-07T22:26:43.916Z,5.20
2019-05-07T22:29:13.291Z,5.30
2019-05-07T22:32:02.601Z,5.30
2019-05-07T22:34:35.846Z,5.30
2019-05-07T22:37:05.227Z,5.30
2019-05-07T22:39:34.578Z,5.30
2019-05-07T22:42:03.967Z,5.30
2019-05-07T22:44:33.329Z,5.20
2019-05-07T22:47:19.078Z,5.00
2019-05-07T22:49:50.110Z,4.90
2019-05-07T22:52:22.431Z,4.80
2019-05-07T22:54:51.962Z,4.80
2019-05-07T22:57:52.623Z,4.80
2019-05-07T23:00:33.154Z,4.80
2019-05-07T23:03:02.888Z,4.80
2019-05-07T23:05:32.517Z,4.80
2019-05-07T23:08:02.494Z,4.80
2019-05-07T23:10:33.328Z,4.80
2019-05-07T23:13:02.903Z,4.70
2019-05-07T23:15:32.313Z,4.70
2019-05-07T23:18:04.190Z,4.50
2019-05-07T23:20:32.691Z,4.40
2019-05-07T23:23:02.066Z,4.30
2019-05-07T23:25:32.271Z,4.30
2019-05-07T23:28:04.885Z,4.30
2019-05-07T23:30:33.157Z,4.30
2019-05-07T23:33:02.695Z,4.30
2019-05-07T23:35:32.841Z,4.30
2019-05-07T23:38:02.530Z,4.30
2019-05-07T23:40:59.027Z,4.40
2019-05-07T23:43:28.397Z,4.40
2019-05-07T23:45:57.764Z,4.40
2019-05-07T23:48:27.139Z,4.40
2019-05-07T23:50:56.494Z,4.40
2019-05-07T23:53:25.871Z,4.40
2019-05-07T23:55:55.218Z,4.40
2019-05-07T23:58:24.600Z,4.30
